createdAt,value
2017-07-18T00:00:58.002Z,24.84
2017-07-18T00:03:25.627Z,24.87
2017-07-18T00:05:53.144Z,24.89
2017-07-18T00:08:20.694Z,24.89
2017-07-18T00:10:48.207Z,24.86
2017-07-18T00:13:15.782Z,24.86
2017-07-18T00:15:43.310Z,24.88
2017-07-18T00:18:10.864Z,24.87
2017-07-18T00:20:38.385Z,24.86
2017-07-18T00:23:05.904Z,24.86
2017-07-18T00:25:33.457Z,24.84
2017-07-18T00:28:00.974Z,24.82
2017-07-18T00:30:28.529Z,24.80
2017-07-18T00:32:56.059Z,24.81
2017-07-18T00:35:23.699Z,24.78
2017-07-18T00:37:51.338Z,24.80
2017-07-18T00:40:18.894Z,24.79
2017-07-18T00:42:46.495Z,24.79
2017-07-18T00:45:14.060Z,24.80
2017-07-18T00:47:41.613Z,24.77
2017-07-18T00:50:09.239Z,24.78
2017-07-18T00:52:36.795Z,24.76
2017-07-18T00:55:04.336Z,24.75
2017-07-18T00:57:31.848Z,24.75
2017-07-18T00:59:59.400Z,24.71
2017-07-18T01:02:26.923Z,24.69
2017-07-18T01:04:54.478Z,24.65
2017-07-18T01:07:22.010Z,24.64
2017-07-18T01:09:49.561Z,24.65
2017-07-18T01:12:17.076Z,24.66
2017-07-18T01:14:44.597Z,24.65
2017-07-18T01:17:12.146Z,24.64
2017-07-18T01:19:39.677Z,24.62
2017-07-18T01:22:07.218Z,24.60
2017-07-18T01:24:34.767Z,24.61
2017-07-18T01:27:02.395Z,24.63
2017-07-18T01:29:29.926Z,24.59
2017-07-18T01:31:57.471Z,24.57
2017-07-18T01:34:25.001Z,24.58
2017-07-18T01:36:52.554Z,24.58
2017-07-18T01:39:20.123Z,24.58
2017-07-18T01:41:47.683Z,24.57
2017-07-18T01:44:15.245Z,24.57
2017-07-18T01:46:42.802Z,24.56
2017-07-18T01:49:10.320Z,24.59
2017-07-18T01:51:37.864Z,24.58
2017-07-18T01:54:05.390Z,24.58
2017-07-18T01:56:32.950Z,24.57
2017-07-18T01:59:00.458Z,24.59
2017-07-18T02:01:28.001Z,24.54
2017-07-18T02:03:55.520Z,24.56
2017-07-18T02:06:23.041Z,24.52
2017-07-18T02:08:50.593Z,24.52
2017-07-18T02:11:18.112Z,24.47
2017-07-18T02:13:45.667Z,24.46
2017-07-18T02:16:13.216Z,24.41
2017-07-18T02:18:40.776Z,24.44
2017-07-18T02:21:08.298Z,24.44
2017-07-18T02:23:35.844Z,24.45
2017-07-18T02:26:03.365Z,24.45
2017-07-18T02:28:30.916Z,24.47
2017-07-18T02:30:58.471Z,24.50
2017-07-18T02:33:26.195Z,24.47
2017-07-18T02:35:53.710Z,24.48
2017-07-18T02:38:21.264Z,24.47
2017-07-18T02:40:48.797Z,24.45
2017-07-18T02:43:16.361Z,24.46
2017-07-18T02:45:43.876Z,24.44
2017-07-18T02:48:11.444Z,24.45
2017-07-18T02:50:39.052Z,24.46
2017-07-18T02:53:06.597Z,24.43
2017-07-18T02:55:34.108Z,24.43
2017-07-18T02:58:01.630Z,24.40
2017-07-18T03:00:29.172Z,24.41
2017-07-18T03:02:56.698Z,24.44
2017-07-18T03:05:24.261Z,24.42
2017-07-18T03:07:51.781Z,24.41
2017-07-18T03:10:19.336Z,24.43
2017-07-18T03:12:46.858Z,24.44
2017-07-18T03:15:14.409Z,24.44
2017-07-18T03:17:41.950Z,24.41
2017-07-18T03:20:09.508Z,24.39
2017-07-18T03:22:37.039Z,24.40
2017-07-18T03:25:04.597Z,24.39
2017-07-18T03:27:33.057Z,24.38
2017-07-18T03:30:00.610Z,24.39
2017-07-18T03:32:28.311Z,24.39
2017-07-18T03:34:55.877Z,24.44
2017-07-18T03:37:23.394Z,24.45
2017-07-18T03:39:50.949Z,24.40
2017-07-18T03:42:18.482Z,24.38
2017-07-18T03:44:46.029Z,24.36
2017-07-18T03:47:13.546Z,24.38
2017-07-18T03:49:43.458Z,24.37
2017-07-18T03:52:11.015Z,24.38
2017-07-18T03:54:38.533Z,24.36
2017-07-18T03:57:06.085Z,24.36
2017-07-18T03:59:33.611Z,24.35
2017-07-18T04:02:01.217Z,24.33
2017-07-18T04:04:28.737Z,24.34
2017-07-18T04:06:56.332Z,24.35
2017-07-18T04:09:23.893Z,24.35
2017-07-18T04:11:51.446Z,24.35
2017-07-18T04:14:18.965Z,24.36
2017-07-18T04:16:48.222Z,24.36
2017-07-18T04:19:15.743Z,24.33
2017-07-18T04:21:43.284Z,24.31
2017-07-18T04:24:10.806Z,24.31
2017-07-18T04:26:38.449Z,24.30
2017-07-18T04:29:05.969Z,24.30
2017-07-18T04:31:33.524Z,24.34
2017-07-18T04:34:01.043Z,24.32
2017-07-18T04:36:28.596Z,24.37
2017-07-18T04:38:56.119Z,24.40
2017-07-18T04:41:23.641Z,24.21
2017-07-18T04:43:51.242Z,24.12
2017-07-18T04:46:18.757Z,24.10
2017-07-18T04:48:46.305Z,24.09
2017-07-18T04:51:13.821Z,24.06
2017-07-18T04:53:41.369Z,24.13
2017-07-18T04:56:08.892Z,24.23
2017-07-18T04:58:36.451Z,24.28
2017-07-18T05:01:04.007Z,24.35
2017-07-18T05:03:31.662Z,24.45
2017-07-18T05:05:59.185Z,24.50
2017-07-18T05:08:26.750Z,24.50
2017-07-18T05:10:54.270Z,24.51
2017-07-18T05:13:21.825Z,24.52
2017-07-18T05:15:49.356Z,24.53
2017-07-18T05:18:16.897Z,24.55
2017-07-18T05:20:44.414Z,24.54
2017-07-18T05:23:11.969Z,24.55
2017-07-18T05:25:39.500Z,24.57
2017-07-18T05:28:07.056Z,24.56
2017-07-18T05:30:34.569Z,24.56
2017-07-18T05:33:02.087Z,24.58
2017-07-18T05:35:29.632Z,24.59
2017-07-18T05:37:57.197Z,24.61
2017-07-18T05:40:24.756Z,24.61
2017-07-18T05:42:52.278Z,24.62
2017-07-18T05:45:19.820Z,24.63
2017-07-18T05:47:47.338Z,24.63
2017-07-18T05:50:14.890Z,24.62
2017-07-18T05:52:42.405Z,24.64
2017-07-18T05:55:09.957Z,24.63
2017-07-18T05:57:37.472Z,24.62
2017-07-18T06:00:05.023Z,24.64
2017-07-18T06:02:32.580Z,24.63
2017-07-18T06:05:00.153Z,24.63
2017-07-18T06:07:27.698Z,24.65
2017-07-18T06:09:55.363Z,24.64
2017-07-18T06:12:22.924Z,24.66
2017-07-18T06:14:50.468Z,24.66
2017-07-18T06:17:18.041Z,24.67
2017-07-18T06:19:45.704Z,24.68
2017-07-18T06:22:13.266Z,24.70
2017-07-18T06:24:40.777Z,24.71
2017-07-18T06:27:08.325Z,24.71
2017-07-18T06:29:35.839Z,24.70
2017-07-18T06:32:03.397Z,24.70
2017-07-18T06:34:30.910Z,24.71
2017-07-18T06:36:58.461Z,24.71
2017-07-18T06:39:26.079Z,24.72
2017-07-18T06:41:53.627Z,24.71
2017-07-18T06:44:21.149Z,24.72
2017-07-18T06:46:48.710Z,24.73
2017-07-18T06:49:16.232Z,24.75
2017-07-18T06:51:43.784Z,24.75
2017-07-18T06:54:11.337Z,24.74
2017-07-18T06:56:38.887Z,24.75
2017-07-18T06:59:06.399Z,24.76
2017-07-18T07:01:34.019Z,24.76
2017-07-18T07:04:01.575Z,24.76
2017-07-18T07:06:29.121Z,24.76
2017-07-18T07:08:56.637Z,24.77
2017-07-18T07:11:24.196Z,24.77
2017-07-18T07:13:51.722Z,24.77
2017-07-18T07:16:19.255Z,24.78
2017-07-18T07:18:46.795Z,24.79
2017-07-18T07:21:14.308Z,24.78
2017-07-18T07:23:41.952Z,24.78
2017-07-18T07:26:09.474Z,24.79
2017-07-18T07:28:37.027Z,24.80
2017-07-18T07:31:04.548Z,24.80
2017-07-18T07:33:32.091Z,24.80
2017-07-18T07:35:59.614Z,24.81
2017-07-18T07:38:27.166Z,24.81
2017-07-18T07:40:54.688Z,24.80
2017-07-18T07:43:22.227Z,24.81
2017-07-18T07:45:49.743Z,24.81
2017-07-18T07:48:17.289Z,24.82
2017-07-18T07:50:44.796Z,24.82
2017-07-18T07:53:12.473Z,24.83
2017-07-18T07:55:39.988Z,24.82
2017-07-18T07:58:07.544Z,24.83
2017-07-18T08:00:35.059Z,24.83
2017-07-18T08:03:02.579Z,24.83
2017-07-18T08:05:30.133Z,24.83
2017-07-18T08:07:57.645Z,24.83
2017-07-18T08:10:25.192Z,24.84
2017-07-18T08:12:52.719Z,24.85
2017-07-18T08:15:20.265Z,24.86
2017-07-18T08:17:47.786Z,24.86
2017-07-18T08:20:15.328Z,24.86
2017-07-18T08:22:42.850Z,24.86
2017-07-18T08:25:10.391Z,24.88
2017-07-18T08:27:37.908Z,24.88
2017-07-18T08:30:05.457Z,24.88
2017-07-18T08:32:32.980Z,24.89
2017-07-18T08:35:00.523Z,24.89
2017-07-18T08:37:28.036Z,24.89
2017-07-18T08:39:55.582Z,24.90
2017-07-18T08:42:23.095Z,24.91
2017-07-18T08:44:50.642Z,24.92
2017-07-18T08:47:18.175Z,24.91
2017-07-18T08:49:45.835Z,24.90
2017-07-18T08:52:13.383Z,24.91
2017-07-18T08:54:40.901Z,24.92
2017-07-18T08:57:08.451Z,24.92
2017-07-18T08:59:35.957Z,24.92
2017-07-18T09:02:03.499Z,24.92
2017-07-18T09:04:31.009Z,24.94
2017-07-18T09:06:58.553Z,24.93
2017-07-18T09:09:26.072Z,24.94
2017-07-18T09:11:53.620Z,24.95
2017-07-18T09:16:47.729Z,24.96
2017-07-18T09:19:15.245Z,24.96
2017-07-18T09:21:42.792Z,24.97
2017-07-18T09:24:10.300Z,24.97
2017-07-18T09:26:37.863Z,24.97
2017-07-18T09:29:05.373Z,24.98
2017-07-18T09:31:32.928Z,24.99
2017-07-18T09:34:00.446Z,25.00
2017-07-18T09:36:27.988Z,25.01
2017-07-18T09:38:55.506Z,25.02
2017-07-18T09:41:23.050Z,25.02
2017-07-18T09:43:50.564Z,25.03
2017-07-18T09:46:18.072Z,25.03
2017-07-18T09:48:45.629Z,25.03
2017-07-18T09:51:13.144Z,25.05
2017-07-18T09:53:40.681Z,25.05
2017-07-18T09:56:08.192Z,25.05
2017-07-18T09:58:35.741Z,25.06
2017-07-18T10:01:03.255Z,25.07
2017-07-18T10:03:30.788Z,25.08
2017-07-18T10:05:58.301Z,25.08
2017-07-18T10:08:25.842Z,25.09
2017-07-18T10:10:53.353Z,25.08
2017-07-18T10:13:20.902Z,25.09
2017-07-18T10:15:48.420Z,25.10
2017-07-18T10:18:15.961Z,25.09
2017-07-18T10:20:43.473Z,25.11
2017-07-18T10:23:11.015Z,25.12
2017-07-18T10:25:38.541Z,25.12
2017-07-18T10:28:06.079Z,25.12
2017-07-18T10:30:33.594Z,25.12
2017-07-18T10:33:01.150Z,25.14
2017-07-18T10:35:28.670Z,25.14
2017-07-18T10:37:56.179Z,25.15
2017-07-18T10:40:23.723Z,25.15
2017-07-18T10:42:51.236Z,25.15
2017-07-18T10:45:18.768Z,25.16
2017-07-18T10:47:46.277Z,25.16
2017-07-18T10:50:13.814Z,25.16
2017-07-18T10:52:41.325Z,25.17
2017-07-18T10:55:08.876Z,25.18
2017-07-18T10:57:36.393Z,25.18
2017-07-18T11:00:03.924Z,25.18
2017-07-18T11:02:31.440Z,25.19
2017-07-18T11:04:58.980Z,25.19
2017-07-18T11:07:26.496Z,25.19
2017-07-18T11:09:54.039Z,25.20
2017-07-18T11:12:21.547Z,25.20
2017-07-18T11:14:49.088Z,25.21
2017-07-18T11:17:16.601Z,25.22
2017-07-18T11:19:44.164Z,25.21
2017-07-18T11:22:11.683Z,25.22
2017-07-18T11:24:39.189Z,25.22
2017-07-18T11:27:06.734Z,25.23
2017-07-18T11:29:34.244Z,25.23
2017-07-18T11:32:01.780Z,25.24
2017-07-18T11:34:29.284Z,25.24
2017-07-18T11:36:56.825Z,25.25
2017-07-18T11:39:24.336Z,25.25
2017-07-18T11:41:51.898Z,25.25
2017-07-18T11:44:19.408Z,25.24
2017-07-18T11:46:46.961Z,25.26
2017-07-18T11:49:14.463Z,25.26
2017-07-18T11:51:42.008Z,25.27
2017-07-18T11:54:09.518Z,25.28
2017-07-18T11:56:37.056Z,25.29
2017-07-18T11:59:04.580Z,25.28
2017-07-18T12:01:32.127Z,25.29
2017-07-18T12:03:59.639Z,25.30
2017-07-18T12:06:27.163Z,25.31
2017-07-18T12:08:54.711Z,25.31
2017-07-18T12:11:22.222Z,25.32
2017-07-18T12:13:49.774Z,25.32
2017-07-18T12:16:17.288Z,25.32
2017-07-18T12:18:56.616Z,25.33
2017-07-18T12:21:24.126Z,25.34
2017-07-18T12:23:51.668Z,25.34
2017-07-18T12:26:19.186Z,25.34
2017-07-18T12:28:46.735Z,25.35
2017-07-18T12:31:14.244Z,25.36
2017-07-18T12:33:41.783Z,25.37
2017-07-18T12:36:09.301Z,25.37
2017-07-18T12:38:36.841Z,25.36
2017-07-18T12:41:04.357Z,25.37
2017-07-18T12:43:31.900Z,25.38
2017-07-18T12:45:59.416Z,25.39
2017-07-18T12:48:27.003Z,25.39
2017-07-18T12:50:54.510Z,25.40
2017-07-18T12:53:22.017Z,25.41
2017-07-18T12:55:49.566Z,25.41
2017-07-18T12:58:17.067Z,25.42
2017-07-18T13:00:44.634Z,25.41
2017-07-18T13:03:12.148Z,25.42
2017-07-18T13:05:39.706Z,25.43
2017-07-18T13:08:07.220Z,25.44
2017-07-18T13:10:34.773Z,25.43
2017-07-18T13:13:02.292Z,25.44
2017-07-18T13:15:29.849Z,25.45
2017-07-18T13:17:57.365Z,25.46
2017-07-18T13:20:24.909Z,25.46
2017-07-18T13:22:52.426Z,25.46
2017-07-18T13:25:19.975Z,25.47
2017-07-18T13:27:47.482Z,25.48
2017-07-18T13:30:15.025Z,25.49
2017-07-18T13:32:42.537Z,25.50
2017-07-18T13:35:10.089Z,25.50
2017-07-18T13:37:37.603Z,25.50
2017-07-18T13:40:05.117Z,25.50
2017-07-18T13:42:32.656Z,25.51
2017-07-18T13:45:00.172Z,25.52
2017-07-18T13:47:27.715Z,25.52
2017-07-18T13:49:55.225Z,25.53
2017-07-18T13:52:22.784Z,25.54
2017-07-18T13:54:50.290Z,25.55
2017-07-18T13:57:17.822Z,25.54
2017-07-18T13:59:45.343Z,25.54
2017-07-18T14:02:12.889Z,25.56
2017-07-18T14:04:40.401Z,25.56
2017-07-18T14:07:07.938Z,25.57
2017-07-18T14:09:35.447Z,25.58
2017-07-18T14:12:02.996Z,25.58
2017-07-18T14:14:30.507Z,25.58
2017-07-18T14:16:58.062Z,25.59
2017-07-18T14:19:25.577Z,25.60
2017-07-18T14:21:53.117Z,25.61
2017-07-18T14:24:20.624Z,25.61
2017-07-18T14:26:48.174Z,25.61
2017-07-18T14:29:15.689Z,25.61
2017-07-18T14:31:43.199Z,25.62
2017-07-18T14:34:10.744Z,25.62
2017-07-18T14:36:38.259Z,25.63
2017-07-18T14:39:05.805Z,25.63
2017-07-18T14:41:33.318Z,25.64
2017-07-18T14:44:00.871Z,25.64
2017-07-18T14:46:28.385Z,25.65
2017-07-18T14:48:55.929Z,25.65
2017-07-18T14:51:23.435Z,25.65
2017-07-18T14:53:50.969Z,25.66
2017-07-18T14:56:18.479Z,25.67
2017-07-18T14:58:46.033Z,25.67
2017-07-18T15:01:13.542Z,25.67
2017-07-18T15:03:41.085Z,25.68
2017-07-18T15:06:08.608Z,25.68
2017-07-18T15:08:36.140Z,25.69
2017-07-18T15:11:03.646Z,25.68
2017-07-18T15:13:31.185Z,25.69
2017-07-18T15:15:58.696Z,25.70
2017-07-18T15:18:26.210Z,25.70
2017-07-18T15:20:53.773Z,25.71
2017-07-18T15:23:21.291Z,25.72
2017-07-18T15:25:48.838Z,25.72
2017-07-18T15:28:16.354Z,25.73
2017-07-18T15:30:43.896Z,25.73
2017-07-18T15:33:11.405Z,25.73
2017-07-18T15:35:38.942Z,25.74
2017-07-18T15:38:06.453Z,25.74
2017-07-18T15:40:33.985Z,25.74
2017-07-18T15:43:01.507Z,25.74
2017-07-18T15:45:29.044Z,25.76
2017-07-18T15:47:56.558Z,25.76
2017-07-18T15:50:24.102Z,25.76
2017-07-18T15:52:51.610Z,25.77
2017-07-18T15:55:19.156Z,25.77
2017-07-18T15:57:46.668Z,25.77
2017-07-18T16:00:14.233Z,25.78
2017-07-18T16:02:41.748Z,25.79
2017-07-18T16:05:09.270Z,25.79
2017-07-18T16:07:36.816Z,25.79
2017-07-18T16:10:04.331Z,25.79
2017-07-18T16:12:31.871Z,25.80
2017-07-18T16:14:59.385Z,25.80
2017-07-18T16:17:26.925Z,25.81
2017-07-18T16:19:54.432Z,25.82
2017-07-18T16:22:21.972Z,25.82
2017-07-18T16:24:49.501Z,25.83
2017-07-18T16:27:17.045Z,25.85
2017-07-18T16:29:44.560Z,25.86
2017-07-18T16:32:12.111Z,25.87
2017-07-18T16:34:39.620Z,25.88
2017-07-18T16:37:07.169Z,25.90
2017-07-18T16:39:34.757Z,25.90
2017-07-18T16:42:02.298Z,25.91
2017-07-18T16:44:29.810Z,25.92
2017-07-18T16:46:57.371Z,25.93
2017-07-18T16:49:24.896Z,25.95
2017-07-18T16:51:53.642Z,26.03
2017-07-18T16:54:21.223Z,26.21
2017-07-18T16:56:48.728Z,26.27
2017-07-18T16:59:16.268Z,26.26
2017-07-18T17:01:43.778Z,26.26
2017-07-18T17:04:11.337Z,26.26
2017-07-18T17:06:38.845Z,26.25
2017-07-18T17:09:06.388Z,26.25
2017-07-18T17:11:33.901Z,26.27
2017-07-18T17:14:01.451Z,26.28
2017-07-18T17:16:28.960Z,26.28
2017-07-18T17:18:56.504Z,26.30
2017-07-18T17:21:24.012Z,26.29
2017-07-18T17:23:51.556Z,26.30
2017-07-18T17:26:19.065Z,26.30
2017-07-18T17:28:46.604Z,26.30
2017-07-18T17:31:14.122Z,26.31
2017-07-18T17:33:41.673Z,26.36
2017-07-18T17:36:09.188Z,26.39
2017-07-18T17:38:36.733Z,26.42
2017-07-18T17:41:04.257Z,26.45
2017-07-18T17:43:31.773Z,26.46
2017-07-18T17:45:59.315Z,26.46
2017-07-18T17:48:26.827Z,26.45
2017-07-18T17:50:54.378Z,26.47
2017-07-18T17:53:21.898Z,26.48
2017-07-18T17:55:49.453Z,26.49
2017-07-18T17:58:16.965Z,26.50
2017-07-18T18:00:44.505Z,26.52
2017-07-18T18:03:12.027Z,26.53
2017-07-18T18:05:39.581Z,26.53
2017-07-18T18:08:07.098Z,26.54
2017-07-18T18:10:34.647Z,26.55
2017-07-18T18:13:02.161Z,26.55
2017-07-18T18:15:29.729Z,26.55
2017-07-18T18:17:57.251Z,26.55
2017-07-18T18:20:24.800Z,26.53
2017-07-18T18:22:52.329Z,26.54
2017-07-18T18:25:19.895Z,26.89
2017-07-18T18:27:47.633Z,26.99
2017-07-18T18:30:15.388Z,27.17
2017-07-18T18:32:43.108Z,27.14
2017-07-18T18:35:10.830Z,27.05
2017-07-18T18:37:38.396Z,27.03
2017-07-18T18:40:05.948Z,26.99
2017-07-18T18:42:33.490Z,26.99
2017-07-18T18:45:01.000Z,26.92
2017-07-18T18:47:28.673Z,26.87
2017-07-18T18:49:56.206Z,26.86
2017-07-18T18:52:23.752Z,26.88
2017-07-18T18:54:51.263Z,26.98
2017-07-18T18:57:18.840Z,26.99
2017-07-18T18:59:46.354Z,27.09
2017-07-18T19:02:13.909Z,26.95
2017-07-18T19:04:41.422Z,26.90
2017-07-18T19:07:08.961Z,26.89
2017-07-18T19:09:36.473Z,26.88
2017-07-18T19:12:04.017Z,26.87
2017-07-18T19:14:31.537Z,26.89
2017-07-18T19:16:59.047Z,26.89
2017-07-18T19:19:26.579Z,26.88
2017-07-18T19:21:54.097Z,26.86
2017-07-18T19:24:21.641Z,26.83
2017-07-18T19:26:49.152Z,26.81
2017-07-18T19:29:16.723Z,26.88
2017-07-18T19:31:44.236Z,26.94
2017-07-18T19:34:11.793Z,26.92
2017-07-18T19:36:39.345Z,27.44
2017-07-18T19:39:06.909Z,27.20
2017-07-18T19:41:34.422Z,26.90
2017-07-18T19:44:01.977Z,26.78
2017-07-18T19:46:29.493Z,26.72
2017-07-18T19:48:57.045Z,26.66
2017-07-18T19:51:24.566Z,26.65
2017-07-18T19:53:52.111Z,26.60
2017-07-18T19:56:19.625Z,26.58
2017-07-18T19:58:47.169Z,26.60
2017-07-18T20:01:14.689Z,26.59
2017-07-18T20:03:42.243Z,26.55
2017-07-18T20:06:09.759Z,26.54
2017-07-18T20:08:37.268Z,26.51
2017-07-18T20:11:04.817Z,26.49
2017-07-18T20:13:32.322Z,26.46
2017-07-18T20:15:59.870Z,26.45
2017-07-18T20:18:27.386Z,26.41
2017-07-18T20:20:54.928Z,26.37
2017-07-18T20:23:22.436Z,26.35
2017-07-18T20:25:49.987Z,26.32
2017-07-18T20:28:17.505Z,26.33
2017-07-18T20:30:45.047Z,26.35
2017-07-18T20:33:12.555Z,26.33
2017-07-18T20:35:40.105Z,26.27
2017-07-18T20:38:07.625Z,26.27
2017-07-18T20:40:35.178Z,26.26
2017-07-18T20:43:02.697Z,26.27
2017-07-18T20:45:30.255Z,26.26
2017-07-18T20:47:57.770Z,26.27
2017-07-18T20:50:25.297Z,26.24
2017-07-18T20:52:52.846Z,26.35
2017-07-18T20:55:20.364Z,26.44
2017-07-18T20:57:47.908Z,26.46
2017-07-18T21:00:15.443Z,26.46
2017-07-18T21:02:43.006Z,26.45
2017-07-18T21:07:44.415Z,26.50
2017-07-18T21:10:11.920Z,26.49
2017-07-18T21:12:39.469Z,26.47
2017-07-18T21:15:06.980Z,26.49
2017-07-18T21:17:34.534Z,26.48
2017-07-18T21:20:02.051Z,26.42
2017-07-18T21:22:29.601Z,26.36
2017-07-18T21:24:57.134Z,26.64
2017-07-18T21:27:24.697Z,27.06
2017-07-18T21:29:52.214Z,26.96
2017-07-18T21:32:19.760Z,26.94
2017-07-18T21:34:47.275Z,27.03
2017-07-18T21:37:14.828Z,27.10
2017-07-18T21:39:42.349Z,27.12
2017-07-18T21:42:09.864Z,27.10
2017-07-18T21:44:37.404Z,27.07
2017-07-18T21:47:04.944Z,26.98
2017-07-18T21:49:32.487Z,26.90
2017-07-18T21:52:00.015Z,26.86
2017-07-18T21:54:27.561Z,26.78
2017-07-18T21:56:55.073Z,26.81
2017-07-18T21:59:22.625Z,26.78
2017-07-18T22:01:50.133Z,26.79
2017-07-18T22:04:17.675Z,26.79
2017-07-18T22:06:45.191Z,26.80
2017-07-18T22:09:12.751Z,26.80
2017-07-18T22:11:40.265Z,26.79
2017-07-18T22:14:07.812Z,26.76
2017-07-18T22:16:35.330Z,26.78
2017-07-18T22:19:02.889Z,26.78
2017-07-18T22:21:30.398Z,26.77
2017-07-18T22:23:57.960Z,26.71
2017-07-18T22:26:25.465Z,26.71
2017-07-18T22:28:53.025Z,26.68
2017-07-18T22:31:20.536Z,26.68
2017-07-18T22:33:48.052Z,26.64
2017-07-18T22:36:15.594Z,26.63
2017-07-18T22:38:43.121Z,26.60
2017-07-18T22:41:10.674Z,26.57
2017-07-18T22:43:38.193Z,26.49
2017-07-18T22:46:05.733Z,26.41
2017-07-18T22:48:33.248Z,26.41
2017-07-18T22:51:00.791Z,26.32
2017-07-18T22:53:28.313Z,26.29
2017-07-18T22:55:55.855Z,26.28
2017-07-18T22:58:23.381Z,26.20
2017-07-18T23:00:50.919Z,26.22
2017-07-18T23:03:18.438Z,26.22
2017-07-18T23:05:45.989Z,26.17
2017-07-18T23:08:13.506Z,26.15
2017-07-18T23:10:41.053Z,26.09
2017-07-18T23:13:08.566Z,25.98
2017-07-18T23:15:36.124Z,26.02
2017-07-18T23:18:03.716Z,25.96
2017-07-18T23:20:31.228Z,25.99
2017-07-18T23:22:58.780Z,25.96
2017-07-18T23:25:26.292Z,25.89
2017-07-18T23:27:53.835Z,25.84
2017-07-18T23:30:21.354Z,25.74
2017-07-18T23:32:48.899Z,25.65
2017-07-18T23:35:16.410Z,25.65
2017-07-18T23:37:43.953Z,25.63
2017-07-18T23:40:11.456Z,25.62
2017-07-18T23:42:39.018Z,25.61
2017-07-18T23:45:06.533Z,25.62
2017-07-18T23:47:34.075Z,25.63
2017-07-18T23:50:01.599Z,25.70
2017-07-18T23:52:29.160Z,25.77
2017-07-18T23:54:56.720Z,25.83
2017-07-18T23:57:24.263Z,25.85
2017-07-18T23:59:51.764Z,25.91
